sensor_id;sensor_type;location;lat;lon;timestamp;pressure;altitude;pressure_sealevel;temperature
70415;BMP280;57837;52.064;113.478;2024-01-06T00:01:49;94849.19;;;-21.87
70415;BMP280;57837;52.064;113.478;2024-01-06T00:04:53;94852.03;;;-21.83
70415;BMP280;57837;52.064;113.478;2024-01-06T00:07:57;94846.53;;;-21.99
70415;BMP280;57837;52.064;113.478;2024-01-06T00:11:01;94849.16;;;-22.00
70415;BMP280;57837;52.064;113.478;2024-01-06T00:14:06;94840.88;;;-21.93
70415;BMP280;57837;52.064;113.478;2024-01-06T00:17:10;94841.25;;;-21.89
70415;BMP280;57837;52.064;113.478;2024-01-06T00:20:13;94845.41;;;-21.83
70415;BMP280;57837;52.064;113.478;2024-01-06T00:23:18;94828.25;;;-21.83
70415;BMP280;57837;52.064;113.478;2024-01-06T00:26:22;94835.97;;;-21.86
70415;BMP280;57837;52.064;113.478;2024-01-06T00:29:28;94836.34;;;-21.89
70415;BMP280;57837;52.064;113.478;2024-01-06T00:32:31;94846.56;;;-21.85
70415;BMP280;57837;52.064;113.478;2024-01-06T00:35:39;94844.66;;;-21.83
70415;BMP280;57837;52.064;113.478;2024-01-06T00:38:43;94844.28;;;-21.87
70415;BMP280;57837;52.064;113.478;2024-01-06T00:41:47;94838.97;;;-21.91
70415;BMP280;57837;52.064;113.478;2024-01-06T00:44:50;94845.03;;;-21.93
70415;BMP280;57837;52.064;113.478;2024-01-06T00:47:54;94842.56;;;-21.93
70415;BMP280;57837;52.064;113.478;2024-01-06T00:50:58;94845.25;;;-21.81
70415;BMP280;57837;52.064;113.478;2024-01-06T00:54:02;94844.88;;;-21.58
70415;BMP280;57837;52.064;113.478;2024-01-06T00:57:06;94841.69;;;-21.52
70415;BMP280;57837;52.064;113.478;2024-01-06T01:00:11;94848.47;;;-21.61
70415;BMP280;57837;52.064;113.478;2024-01-06T01:03:15;94840.34;;;-21.55
70415;BMP280;57837;52.064;113.478;2024-01-06T01:06:19;94841.47;;;-21.51
70415;BMP280;57837;52.064;113.478;2024-01-06T01:09:22;94847.72;;;-21.42
70415;BMP280;57837;52.064;113.478;2024-01-06T01:12:26;94855.25;;;-21.10
70415;BMP280;57837;52.064;113.478;2024-01-06T01:15:30;94861.66;;;-20.89
70415;BMP280;57837;52.064;113.478;2024-01-06T01:18:34;94866.69;;;-20.57
70415;BMP280;57837;52.064;113.478;2024-01-06T01:21:38;94863.22;;;-20.50
70415;BMP280;57837;52.064;113.478;2024-01-06T01:24:42;94865.13;;;-20.45
70415;BMP280;57837;52.064;113.478;2024-01-06T01:27:46;94870.94;;;-20.33
70415;BMP280;57837;52.064;113.478;2024-01-06T01:30:50;94871.84;;;-20.27
70415;BMP280;57837;52.064;113.478;2024-01-06T01:33:54;94867.44;;;-20.05
70415;BMP280;57837;52.064;113.478;2024-01-06T01:36:59;94864.84;;;-19.86
70415;BMP280;57837;52.064;113.478;2024-01-06T01:40:03;94863.22;;;-19.67
70415;BMP280;57837;52.064;113.478;2024-01-06T01:43:32;94863.63;;;-19.45
70415;BMP280;57837;52.064;113.478;2024-01-06T01:46:37;94853.53;;;-19.18
70415;BMP280;57837;52.064;113.478;2024-01-06T01:49:40;94853.84;;;-19.08
70415;BMP280;57837;52.064;113.478;2024-01-06T01:52:44;94849.38;;;-19.18
70415;BMP280;57837;52.064;113.478;2024-01-06T01:55:49;94859.88;;;-19.29
70415;BMP280;57837;52.064;113.478;2024-01-06T01:58:53;94862.88;;;-19.02
70415;BMP280;57837;52.064;113.478;2024-01-06T02:01:57;94862.00;;;-18.53
70415;BMP280;57837;52.064;113.478;2024-01-06T02:05:01;94856.72;;;-18.38
70415;BMP280;57837;52.064;113.478;2024-01-06T02:08:05;94849.59;;;-18.04
70415;BMP280;57837;52.064;113.478;2024-01-06T02:11:09;94845.72;;;-17.82
70415;BMP280;57837;52.064;113.478;2024-01-06T02:14:13;94849.34;;;-17.84
70415;BMP280;57837;52.064;113.478;2024-01-06T02:17:16;94847.88;;;-18.04
70415;BMP280;57837;52.064;113.478;2024-01-06T02:20:19;94850.41;;;-17.80
70415;BMP280;57837;52.064;113.478;2024-01-06T02:23:23;94851.31;;;-17.63
70415;BMP280;57837;52.064;113.478;2024-01-06T02:26:27;94849.72;;;-17.57
70415;BMP280;57837;52.064;113.478;2024-01-06T02:29:30;94856.56;;;-17.48
70415;BMP280;57837;52.064;113.478;2024-01-06T02:32:34;94852.19;;;-17.46
70415;BMP280;57837;52.064;113.478;2024-01-06T02:35:38;94851.88;;;-17.61
70415;BMP280;57837;52.064;113.478;2024-01-06T02:38:43;94852.75;;;-17.97
70415;BMP280;57837;52.064;113.478;2024-01-06T02:41:47;94845.84;;;-18.07
70415;BMP280;57837;52.064;113.478;2024-01-06T02:44:51;94853.41;;;-17.78
70415;BMP280;57837;52.064;113.478;2024-01-06T02:47:54;94853.13;;;-17.70
70415;BMP280;57837;52.064;113.478;2024-01-06T02:50:58;94842.19;;;-17.62
70415;BMP280;57837;52.064;113.478;2024-01-06T02:54:02;94843.34;;;-17.18
70415;BMP280;57837;52.064;113.478;2024-01-06T02:57:08;94848.91;;;-16.87
70415;BMP280;57837;52.064;113.478;2024-01-06T03:00:11;94840.63;;;-16.81
70415;BMP280;57837;52.064;113.478;2024-01-06T03:03:16;94839.78;;;-16.99
70415;BMP280;57837;52.064;113.478;2024-01-06T03:06:20;94849.59;;;-17.04
70415;BMP280;57837;52.064;113.478;2024-01-06T03:09:24;94847.44;;;-17.00
70415;BMP280;57837;52.064;113.478;2024-01-06T03:12:28;94837.00;;;-16.62
70415;BMP280;57837;52.064;113.478;2024-01-06T03:15:32;94847.03;;;-16.28
70415;BMP280;57837;52.064;113.478;2024-01-06T03:18:36;94841.66;;;-16.37
70415;BMP280;57837;52.064;113.478;2024-01-06T03:21:41;94842.00;;;-16.74
70415;BMP280;57837;52.064;113.478;2024-01-06T03:24:44;94840.69;;;-17.40
70415;BMP280;57837;52.064;113.478;2024-01-06T03:27:49;94836.69;;;-17.76
70415;BMP280;57837;52.064;113.478;2024-01-06T03:30:52;94847.88;;;-18.04
70415;BMP280;57837;52.064;113.478;2024-01-06T03:33:56;94837.88;;;-18.20
70415;BMP280;57837;52.064;113.478;2024-01-06T03:37:01;94839.13;;;-18.30
70415;BMP280;57837;52.064;113.478;2024-01-06T03:40:29;94837.84;;;-18.50
70415;BMP280;57837;52.064;113.478;2024-01-06T03:43:33;94831.91;;;-18.61
70415;BMP280;57837;52.064;113.478;2024-01-06T03:46:36;94822.81;;;-18.79
70415;BMP280;57837;52.064;113.478;2024-01-06T03:49:40;94818.88;;;-18.87
70415;BMP280;57837;52.064;113.478;2024-01-06T03:52:44;94812.59;;;-18.83
70415;BMP280;57837;52.064;113.478;2024-01-06T03:55:47;94814.28;;;-18.95
70415;BMP280;57837;52.064;113.478;2024-01-06T03:58:50;94807.88;;;-18.84
70415;BMP280;57837;52.064;113.478;2024-01-06T04:01:54;94813.78;;;-18.37
70415;BMP280;57837;52.064;113.478;2024-01-06T04:04:57;94806.53;;;-18.50
70415;BMP280;57837;52.064;113.478;2024-01-06T04:08:00;94809.59;;;-18.85
70415;BMP280;57837;52.064;113.478;2024-01-06T04:11:04;94811.09;;;-19.02
70415;BMP280;57837;52.064;113.478;2024-01-06T04:14:06;94806.78;;;-19.07
70415;BMP280;57837;52.064;113.478;2024-01-06T04:17:10;94801.03;;;-19.00
70415;BMP280;57837;52.064;113.478;2024-01-06T04:20:14;94799.88;;;-18.98
70415;BMP280;57837;52.064;113.478;2024-01-06T04:23:17;94786.59;;;-18.97
70415;BMP280;57837;52.064;113.478;2024-01-06T04:26:25;94788.56;;;-19.06
70415;BMP280;57837;52.064;113.478;2024-01-06T04:29:28;94788.56;;;-18.87
70415;BMP280;57837;52.064;113.478;2024-01-06T04:32:31;94784.53;;;-18.82
70415;BMP280;57837;52.064;113.478;2024-01-06T04:35:35;94776.22;;;-18.69
70415;BMP280;57837;52.064;113.478;2024-01-06T04:38:38;94770.97;;;-18.61
70415;BMP280;57837;52.064;113.478;2024-01-06T04:41:43;94756.63;;;-18.64
70415;BMP280;57837;52.064;113.478;2024-01-06T04:44:47;94763.97;;;-18.45
70415;BMP280;57837;52.064;113.478;2024-01-06T04:47:53;94761.88;;;-18.30
70415;BMP280;57837;52.064;113.478;2024-01-06T04:50:57;94755.13;;;-18.23
70415;BMP280;57837;52.064;113.478;2024-01-06T04:54:01;94754.47;;;-18.18
70415;BMP280;57837;52.064;113.478;2024-01-06T04:57:04;94750.75;;;-18.09
70415;BMP280;57837;52.064;113.478;2024-01-06T05:00:09;94745.25;;;-18.11
70415;BMP280;57837;52.064;113.478;2024-01-06T05:03:12;94741.94;;;-18.05
70415;BMP280;57837;52.064;113.478;2024-01-06T05:06:16;94739.59;;;-17.88
70415;BMP280;57837;52.064;113.478;2024-01-06T05:09:20;94728.75;;;-17.76
70415;BMP280;57837;52.064;113.478;2024-01-06T05:12:23;94727.47;;;-17.66
70415;BMP280;57837;52.064;113.478;2024-01-06T05:15:28;94721.75;;;-17.55
70415;BMP280;57837;52.064;113.478;2024-01-06T05:18:31;94716.03;;;-17.44
70415;BMP280;57837;52.064;113.478;2024-01-06T05:21:35;94719.66;;;-17.35
70415;BMP280;57837;52.064;113.478;2024-01-06T05:24:39;94713.34;;;-17.42
70415;BMP280;57837;52.064;113.478;2024-01-06T05:27:44;94707.09;;;-17.45
70415;BMP280;57837;52.064;113.478;2024-01-06T05:30:48;94711.94;;;-17.38
70415;BMP280;57837;52.064;113.478;2024-01-06T05:33:53;94699.75;;;-17.28
70415;BMP280;57837;52.064;113.478;2024-01-06T05:36:56;94701.75;;;-17.13
70415;BMP280;57837;52.064;113.478;2024-01-06T05:40:00;94692.69;;;-17.08
70415;BMP280;57837;52.064;113.478;2024-01-06T05:43:06;94692.59;;;-17.13
70415;BMP280;57837;52.064;113.478;2024-01-06T05:46:11;94695.41;;;-17.09
70415;BMP280;57837;52.064;113.478;2024-01-06T05:49:14;94685.19;;;-17.13
70415;BMP280;57837;52.064;113.478;2024-01-06T05:52:17;94677.75;;;-17.01
70415;BMP280;57837;52.064;113.478;2024-01-06T05:55:22;94676.53;;;-16.99
70415;BMP280;57837;52.064;113.478;2024-01-06T05:58:27;94675.44;;;-16.91
70415;BMP280;57837;52.064;113.478;2024-01-06T06:01:30;94675.94;;;-16.89
70415;BMP280;57837;52.064;113.478;2024-01-06T06:04:34;94679.25;;;-16.83
70415;BMP280;57837;52.064;113.478;2024-01-06T06:07:39;94678.69;;;-16.74
70415;BMP280;57837;52.064;113.478;2024-01-06T06:10:43;94679.50;;;-16.68
70415;BMP280;57837;52.064;113.478;2024-01-06T06:14:07;94681.41;;;-16.75
70415;BMP280;57837;52.064;113.478;2024-01-06T06:17:11;94677.53;;;-16.83
70415;BMP280;57837;52.064;113.478;2024-01-06T06:20:15;94678.66;;;-16.91
70415;BMP280;57837;52.064;113.478;2024-01-06T06:23:19;94674.38;;;-16.95
70415;BMP280;57837;52.064;113.478;2024-01-06T06:26:23;94671.19;;;-16.79
70415;BMP280;57837;52.064;113.478;2024-01-06T06:29:27;94665.41;;;-16.68
70415;BMP280;57837;52.064;113.478;2024-01-06T06:32:32;94658.88;;;-16.57
70415;BMP280;57837;52.064;113.478;2024-01-06T06:35:36;94658.53;;;-16.49
70415;BMP280;57837;52.064;113.478;2024-01-06T06:38:40;94661.81;;;-16.43
70415;BMP280;57837;52.064;113.478;2024-01-06T06:42:08;94660.47;;;-16.34
70415;BMP280;57837;52.064;113.478;2024-01-06T06:45:12;94658.88;;;-16.40
70415;BMP280;57837;52.064;113.478;2024-01-06T06:48:18;94660.91;;;-16.37
70415;BMP280;57837;52.064;113.478;2024-01-06T06:51:21;94660.16;;;-16.38
70415;BMP280;57837;52.064;113.478;2024-01-06T06:54:28;94656.78;;;-16.31
70415;BMP280;57837;52.064;113.478;2024-01-06T06:57:31;94655.34;;;-16.27
70415;BMP280;57837;52.064;113.478;2024-01-06T07:00:36;94649.53;;;-16.16
70415;BMP280;57837;52.064;113.478;2024-01-06T07:03:42;94650.66;;;-16.07
70415;BMP280;57837;52.064;113.478;2024-01-06T07:06:45;94647.97;;;-16.05
70415;BMP280;57837;52.064;113.478;2024-01-06T07:09:48;94645.56;;;-16.00
70415;BMP280;57837;52.064;113.478;2024-01-06T07:12:52;94644.34;;;-15.98
70415;BMP280;57837;52.064;113.478;2024-01-06T07:15:56;94652.75;;;-15.99
70415;BMP280;57837;52.064;113.478;2024-01-06T07:19:16;94650.19;;;-16.04
70415;BMP280;57837;52.064;113.478;2024-01-06T07:22:21;94647.56;;;-16.14
70415;BMP280;57837;52.064;113.478;2024-01-06T07:25:24;94645.28;;;-16.21
70415;BMP280;57837;52.064;113.478;2024-01-06T07:28:27;94647.53;;;-16.19
70415;BMP280;57837;52.064;113.478;2024-01-06T07:31:32;94648.41;;;-16.09
70415;BMP280;57837;52.064;113.478;2024-01-06T07:34:36;94648.03;;;-16.00
70415;BMP280;57837;52.064;113.478;2024-01-06T07:37:40;94644.19;;;-15.86
70415;BMP280;57837;52.064;113.478;2024-01-06T07:40:44;94641.72;;;-15.86
70415;BMP280;57837;52.064;113.478;2024-01-06T07:43:47;94643.97;;;-15.90
70415;BMP280;57837;52.064;113.478;2024-01-06T07:46:54;94649.00;;;-16.01
70415;BMP280;57837;52.064;113.478;2024-01-06T07:49:57;94644.84;;;-16.18
70415;BMP280;57837;52.064;113.478;2024-01-06T07:53:01;94643.88;;;-16.33
70415;BMP280;57837;52.064;113.478;2024-01-06T07:56:06;94639.28;;;-16.42
70415;BMP280;57837;52.064;113.478;2024-01-06T07:59:10;94643.81;;;-16.39
70415;BMP280;57837;52.064;113.478;2024-01-06T08:02:14;94638.19;;;-16.34
70415;BMP280;57837;52.064;113.478;2024-01-06T08:05:21;94637.97;;;-16.49
70415;BMP280;57837;52.064;113.478;2024-01-06T08:08:28;94636.75;;;-16.64
70415;BMP280;57837;52.064;113.478;2024-01-06T08:11:32;94640.50;;;-16.78
70415;BMP280;57837;52.064;113.478;2024-01-06T08:14:35;94634.50;;;-16.82
70415;BMP280;57837;52.064;113.478;2024-01-06T08:17:39;94641.91;;;-16.99
70415;BMP280;57837;52.064;113.478;2024-01-06T08:20:43;94639.41;;;-17.15
70415;BMP280;57837;52.064;113.478;2024-01-06T08:23:47;94644.91;;;-17.25
70415;BMP280;57837;52.064;113.478;2024-01-06T08:26:51;94657.25;;;-17.42
70415;BMP280;57837;52.064;113.478;2024-01-06T08:29:55;94655.06;;;-17.67
70415;BMP280;57837;52.064;113.478;2024-01-06T08:32:59;94650.25;;;-17.97
70415;BMP280;57837;52.064;113.478;2024-01-06T08:36:03;94651.00;;;-18.32
70415;BMP280;57837;52.064;113.478;2024-01-06T08:39:07;94659.59;;;-18.46
70415;BMP280;57837;52.064;113.478;2024-01-06T08:42:11;94657.94;;;-18.64
70415;BMP280;57837;52.064;113.478;2024-01-06T08:45:15;94654.63;;;-18.69
70415;BMP280;57837;52.064;113.478;2024-01-06T08:48:19;94650.47;;;-18.87
70415;BMP280;57837;52.064;113.478;2024-01-06T08:51:23;94663.31;;;-18.97
70415;BMP280;57837;52.064;113.478;2024-01-06T08:54:27;94655.44;;;-19.17
70415;BMP280;57837;52.064;113.478;2024-01-06T08:57:31;94661.06;;;-19.28
70415;BMP280;57837;52.064;113.478;2024-01-06T09:00:35;94664.13;;;-19.33
70415;BMP280;57837;52.064;113.478;2024-01-06T09:03:39;94662.38;;;-19.26
70415;BMP280;57837;52.064;113.478;2024-01-06T09:06:43;94665.41;;;-19.12
70415;BMP280;57837;52.064;113.478;2024-01-06T09:09:47;94650.34;;;-19.04
70415;BMP280;57837;52.064;113.478;2024-01-06T09:12:50;94661.97;;;-19.11
70415;BMP280;57837;52.064;113.478;2024-01-06T09:15:54;94659.69;;;-19.24
70415;BMP280;57837;52.064;113.478;2024-01-06T09:18:59;94661.06;;;-19.28
70415;BMP280;57837;52.064;113.478;2024-01-06T09:22:04;94654.63;;;-19.29
70415;BMP280;57837;52.064;113.478;2024-01-06T09:25:07;94658.19;;;-19.44
70415;BMP280;57837;52.064;113.478;2024-01-06T09:28:12;94662.44;;;-19.51
70415;BMP280;57837;52.064;113.478;2024-01-06T09:31:15;94661.56;;;-19.56
70415;BMP280;57837;52.064;113.478;2024-01-06T09:34:19;94663.41;;;-19.70
70415;BMP280;57837;52.064;113.478;2024-01-06T09:37:24;94657.44;;;-19.81
70415;BMP280;57837;52.064;113.478;2024-01-06T09:40:31;94663.59;;;-19.90
70415;BMP280;57837;52.064;113.478;2024-01-06T09:43:36;94663.09;;;-19.99
70415;BMP280;57837;52.064;113.478;2024-01-06T09:46:41;94664.78;;;-19.99
70415;BMP280;57837;52.064;113.478;2024-01-06T09:49:49;94665.25;;;-19.84
70415;BMP280;57837;52.064;113.478;2024-01-06T09:52:52;94660.63;;;-19.99
70415;BMP280;57837;52.064;113.478;2024-01-06T09:56:00;94654.53;;;-20.15
70415;BMP280;57837;52.064;113.478;2024-01-06T09:59:03;94654.94;;;-20.18
70415;BMP280;57837;52.064;113.478;2024-01-06T10:02:07;94653.63;;;-20.20
70415;BMP280;57837;52.064;113.478;2024-01-06T10:05:13;94654.44;;;-20.26
70415;BMP280;57837;52.064;113.478;2024-01-06T10:08:18;94654.63;;;-20.28
70415;BMP280;57837;52.064;113.478;2024-01-06T10:11:22;94647.53;;;-20.36
70415;BMP280;57837;52.064;113.478;2024-01-06T10:14:27;94648.47;;;-20.37
70415;BMP280;57837;52.064;113.478;2024-01-06T10:17:31;94648.47;;;-20.37
70415;BMP280;57837;52.064;113.478;2024-01-06T10:20:35;94653.22;;;-20.42
70415;BMP280;57837;52.064;113.478;2024-01-06T10:23:39;94643.38;;;-20.42
70415;BMP280;57837;52.064;113.478;2024-01-06T10:26:43;94641.16;;;-20.50
70415;BMP280;57837;52.064;113.478;2024-01-06T10:29:46;94641.00;;;-20.55
70415;BMP280;57837;52.064;113.478;2024-01-06T10:32:50;94638.56;;;-20.55
70415;BMP280;57837;52.064;113.478;2024-01-06T10:35:53;94632.56;;;-20.59
70415;BMP280;57837;52.064;113.478;2024-01-06T10:38:59;94635.25;;;-20.68
70415;BMP280;57837;52.064;113.478;2024-01-06T10:42:06;94642.09;;;-20.76
70415;BMP280;57837;52.064;113.478;2024-01-06T10:45:11;94640.50;;;-20.89
70415;BMP280;57837;52.064;113.478;2024-01-06T10:48:15;94640.44;;;-20.82
70415;BMP280;57837;52.064;113.478;2024-01-06T10:51:21;94635.47;;;-20.69
70415;BMP280;57837;52.064;113.478;2024-01-06T10:54:27;94640.13;;;-20.61
70415;BMP280;57837;52.064;113.478;2024-01-06T10:57:31;94637.59;;;-20.54
70415;BMP280;57837;52.064;113.478;2024-01-06T11:00:35;94637.88;;;-20.63
70415;BMP280;57837;52.064;113.478;2024-01-06T11:03:39;94652.44;;;-20.61
70415;BMP280;57837;52.064;113.478;2024-01-06T11:06:44;94656.25;;;-20.72
70415;BMP280;57837;52.064;113.478;2024-01-06T11:09:58;94650.28;;;-20.82
70415;BMP280;57837;52.064;113.478;2024-01-06T11:16:11;94653.38;;;-21.00
70415;BMP280;57837;52.064;113.478;2024-01-06T11:22:40;94642.72;;;-21.12
70415;BMP280;57837;52.064;113.478;2024-01-06T11:25:45;94638.41;;;-21.24
70415;BMP280;57837;52.064;113.478;2024-01-06T11:28:50;94634.03;;;-21.22
70415;BMP280;57837;52.064;113.478;2024-01-06T11:35:29;94637.28;;;-21.28
70415;BMP280;57837;52.064;113.478;2024-01-06T11:38:37;94633.78;;;-21.52
70415;BMP280;57837;52.064;113.478;2024-01-06T11:41:51;94635.50;;;-21.66
70415;BMP280;57837;52.064;113.478;2024-01-06T11:45:02;94632.88;;;-21.64
70415;BMP280;57837;52.064;113.478;2024-01-06T11:48:07;94624.19;;;-21.67
70415;BMP280;57837;52.064;113.478;2024-01-06T11:51:12;94623.69;;;-21.88
70415;BMP280;57837;52.064;113.478;2024-01-06T11:54:16;94630.28;;;-21.89
70415;BMP280;57837;52.064;113.478;2024-01-06T11:57:23;94637.66;;;-22.02
70415;BMP280;57837;52.064;113.478;2024-01-06T12:00:27;94635.41;;;-22.04
70415;BMP280;57837;52.064;113.478;2024-01-06T12:03:30;94636.53;;;-22.06
70415;BMP280;57837;52.064;113.478;2024-01-06T12:06:35;94632.78;;;-22.09
70415;BMP280;57837;52.064;113.478;2024-01-06T12:09:38;94634.09;;;-22.13
70415;BMP280;57837;52.064;113.478;2024-01-06T12:13:03;94634.84;;;-22.12
70415;BMP280;57837;52.064;113.478;2024-01-06T12:16:08;94635.59;;;-22.38
70415;BMP280;57837;52.064;113.478;2024-01-06T12:19:13;94632.41;;;-22.59
70415;BMP280;57837;52.064;113.478;2024-01-06T12:22:16;94628.22;;;-22.72
70415;BMP280;57837;52.064;113.478;2024-01-06T12:25:21;94626.69;;;-22.73
70415;BMP280;57837;52.064;113.478;2024-01-06T12:28:27;94619.97;;;-22.51
70415;BMP280;57837;52.064;113.478;2024-01-06T12:31:31;94615.41;;;-22.47
70415;BMP280;57837;52.064;113.478;2024-01-06T12:34:37;94611.13;;;-22.52
70415;BMP280;57837;52.064;113.478;2024-01-06T12:37:42;94612.03;;;-22.39
70415;BMP280;57837;52.064;113.478;2024-01-06T12:40:49;94617.13;;;-22.54
70415;BMP280;57837;52.064;113.478;2024-01-06T12:43:52;94616.69;;;-22.98
70415;BMP280;57837;52.064;113.478;2024-01-06T12:46:57;94611.97;;;-22.99
70415;BMP280;57837;52.064;113.478;2024-01-06T12:50:00;94613.25;;;-23.03
70415;BMP280;57837;52.064;113.478;2024-01-06T12:53:03;94619.53;;;-22.94
70415;BMP280;57837;52.064;113.478;2024-01-06T12:56:07;94611.78;;;-22.91
70415;BMP280;57837;52.064;113.478;2024-01-06T12:59:11;94608.00;;;-23.00
70415;BMP280;57837;52.064;113.478;2024-01-06T13:02:14;94603.25;;;-23.22
70415;BMP280;57837;52.064;113.478;2024-01-06T13:05:20;94604.16;;;-23.29
70415;BMP280;57837;52.064;113.478;2024-01-06T13:08:24;94602.81;;;-23.45
70415;BMP280;57837;52.064;113.478;2024-01-06T13:11:28;94597.28;;;-23.60
70415;BMP280;57837;52.064;113.478;2024-01-06T13:14:32;94598.75;;;-23.66
70415;BMP280;57837;52.064;113.478;2024-01-06T13:17:37;94599.91;;;-23.55
70415;BMP280;57837;52.064;113.478;2024-01-06T13:20:40;94591.47;;;-23.59
70415;BMP280;57837;52.064;113.478;2024-01-06T13:23:45;94590.31;;;-23.63
70415;BMP280;57837;52.064;113.478;2024-01-06T13:26:49;94599.84;;;-23.75
70415;BMP280;57837;52.064;113.478;2024-01-06T13:29:54;94593.19;;;-23.88
70415;BMP280;57837;52.064;113.478;2024-01-06T13:32:58;94594.41;;;-24.05
70415;BMP280;57837;52.064;113.478;2024-01-06T13:36:03;94585.34;;;-24.11
70415;BMP280;57837;52.064;113.478;2024-01-06T13:39:07;94582.94;;;-24.05
70415;BMP280;57837;52.064;113.478;2024-01-06T13:42:10;94575.72;;;-24.20
70415;BMP280;57837;52.064;113.478;2024-01-06T13:45:14;94579.91;;;-24.35
70415;BMP280;57837;52.064;113.478;2024-01-06T13:48:19;94581.94;;;-24.45
70415;BMP280;57837;52.064;113.478;2024-01-06T13:51:23;94580.06;;;-24.43
70415;BMP280;57837;52.064;113.478;2024-01-06T13:54:30;94579.50;;;-24.45
70415;BMP280;57837;52.064;113.478;2024-01-06T13:57:34;94588.91;;;-24.42
70415;BMP280;57837;52.064;113.478;2024-01-06T14:00:38;94582.59;;;-24.30
70415;BMP280;57837;52.064;113.478;2024-01-06T14:03:42;94576.22;;;-24.52
70415;BMP280;57837;52.064;113.478;2024-01-06T14:06:48;94573.69;;;-24.87
70415;BMP280;57837;52.064;113.478;2024-01-06T14:09:58;94576.78;;;-25.00
70415;BMP280;57837;52.064;113.478;2024-01-06T14:13:02;94574.28;;;-25.06
70415;BMP280;57837;52.064;113.478;2024-01-06T14:16:06;94564.31;;;-25.26
70415;BMP280;57837;52.064;113.478;2024-01-06T14:19:12;94570.91;;;-25.41
70415;BMP280;57837;52.064;113.478;2024-01-06T14:22:15;94578.88;;;-25.48
70415;BMP280;57837;52.064;113.478;2024-01-06T14:25:21;94571.84;;;-25.57
70415;BMP280;57837;52.064;113.478;2024-01-06T14:28:24;94569.97;;;-25.70
70415;BMP280;57837;52.064;113.478;2024-01-06T14:31:28;94577.75;;;-25.81
70415;BMP280;57837;52.064;113.478;2024-01-06T14:34:31;94566.41;;;-25.59
70415;BMP280;57837;52.064;113.478;2024-01-06T14:37:34;94560.03;;;-25.24
70415;BMP280;57837;52.064;113.478;2024-01-06T14:40:38;94557.63;;;-25.17
70415;BMP280;57837;52.064;113.478;2024-01-06T14:43:41;94555.75;;;-25.37
70415;BMP280;57837;52.064;113.478;2024-01-06T14:46:46;94554.50;;;-25.48
70415;BMP280;57837;52.064;113.478;2024-01-06T14:49:50;94558.09;;;-25.29
70415;BMP280;57837;52.064;113.478;2024-01-06T14:52:54;94550.66;;;-25.21
70415;BMP280;57837;52.064;113.478;2024-01-06T14:56:00;94552.41;;;-25.36
70415;BMP280;57837;52.064;113.478;2024-01-06T14:59:04;94548.03;;;-25.19
70415;BMP280;57837;52.064;113.478;2024-01-06T15:02:09;94542.63;;;-25.00
70415;BMP280;57837;52.064;113.478;2024-01-06T15:05:12;94546.16;;;-25.02
70415;BMP280;57837;52.064;113.478;2024-01-06T15:08:16;94544.41;;;-25.08
70415;BMP280;57837;52.064;113.478;2024-01-06T15:11:24;94542.06;;;-25.16
70415;BMP280;57837;52.064;113.478;2024-01-06T15:14:26;94538.22;;;-25.26
70415;BMP280;57837;52.064;113.478;2024-01-06T15:17:31;94545.66;;;-25.34
70415;BMP280;57837;52.064;113.478;2024-01-06T15:20:34;94549.38;;;-25.38
70415;BMP280;57837;52.064;113.478;2024-01-06T15:23:38;94541.28;;;-25.38
70415;BMP280;57837;52.064;113.478;2024-01-06T15:26:42;94529.59;;;-25.28
70415;BMP280;57837;52.064;113.478;2024-01-06T15:29:46;94539.34;;;-25.28
70415;BMP280;57837;52.064;113.478;2024-01-06T15:32:50;94532.78;;;-25.28
70415;BMP280;57837;52.064;113.478;2024-01-06T15:35:54;94523.78;;;-25.27
70415;BMP280;57837;52.064;113.478;2024-01-06T15:38:58;94525.50;;;-25.21
70415;BMP280;57837;52.064;113.478;2024-01-06T15:42:02;94518.81;;;-25.34
70415;BMP280;57837;52.064;113.478;2024-01-06T15:45:06;94511.69;;;-25.50
70415;BMP280;57837;52.064;113.478;2024-01-06T15:48:10;94516.63;;;-25.65
70415;BMP280;57837;52.064;113.478;2024-01-06T15:51:14;94508.47;;;-25.72
70415;BMP280;57837;52.064;113.478;2024-01-06T15:54:18;94508.78;;;-25.97
70415;BMP280;57837;52.064;113.478;2024-01-06T15:57:25;94517.47;;;-26.32
70415;BMP280;57837;52.064;113.478;2024-01-06T16:00:31;94506.63;;;-26.44
70415;BMP280;57837;52.064;113.478;2024-01-06T16:03:39;94501.31;;;-26.10
70415;BMP280;57837;52.064;113.478;2024-01-06T16:06:43;94502.38;;;-25.83
70415;BMP280;57837;52.064;113.478;2024-01-06T16:10:05;94500.41;;;-25.58
70415;BMP280;57837;52.064;113.478;2024-01-06T16:13:09;94496.03;;;-25.62
70415;BMP280;57837;52.064;113.478;2024-01-06T16:16:13;94489.91;;;-25.73
70415;BMP280;57837;52.064;113.478;2024-01-06T16:19:16;94487.97;;;-25.78
70415;BMP280;57837;52.064;113.478;2024-01-06T16:22:21;94485.13;;;-25.66
70415;BMP280;57837;52.064;113.478;2024-01-06T16:25:25;94487.72;;;-25.68
70415;BMP280;57837;52.064;113.478;2024-01-06T16:28:28;94477.63;;;-25.65
70415;BMP280;57837;52.064;113.478;2024-01-06T16:31:32;94479.06;;;-26.07
70415;BMP280;57837;52.064;113.478;2024-01-06T16:34:36;94473.41;;;-26.22
70415;BMP280;57837;52.064;113.478;2024-01-06T16:37:42;94473.97;;;-26.05
70415;BMP280;57837;52.064;113.478;2024-01-06T16:40:47;94476.09;;;-26.02
70415;BMP280;57837;52.064;113.478;2024-01-06T16:43:51;94472.97;;;-25.96
70415;BMP280;57837;52.064;113.478;2024-01-06T16:46:54;94469.63;;;-25.95
70415;BMP280;57837;52.064;113.478;2024-01-06T16:50:01;94470.41;;;-26.39
70415;BMP280;57837;52.064;113.478;2024-01-06T16:53:05;94479.50;;;-26.71
70415;BMP280;57837;52.064;113.478;2024-01-06T16:56:10;94476.66;;;-26.97
70415;BMP280;57837;52.064;113.478;2024-01-06T16:59:15;94466.66;;;-27.17
70415;BMP280;57837;52.064;113.478;2024-01-06T17:02:21;94473.53;;;-27.29
70415;BMP280;57837;52.064;113.478;2024-01-06T17:05:24;94474.47;;;-27.30
70415;BMP280;57837;52.064;113.478;2024-01-06T17:08:29;94466.84;;;-27.04